Time;durP1;ratioP1;P1;durP2;ratioP2;P2;SDS_P1;SDS_P2;PMS_P1;PMS_P2;Temp;Humidity;BMP_temperature;BMP_pressure;BME280_temperature;BME280_humidity;BME280_pressure;Samples;Min_cycle;Max_cycle;Signal;HPM_P1;HPM_P2
2022/04/21 00:00:42;;;;;;;1.27;0.70;;;19.00;50.30;;;;;;5116474;27;47178;-75
2022/04/21 00:03:09;;;;;;;1.77;0.70;;;19.00;50.20;;;;;;5122683;27;46689;-75
2022/04/21 00:05:36;;;;;;;0.85;0.65;;;19.00;50.10;;;;;;5119873;27;45403;-75
2022/04/21 00:08:04;;;;;;;1.85;0.65;;;19.00;50.10;;;;;;5128015;27;45333;-74
2022/04/21 00:10:31;;;;;;;0.57;0.50;;;19.00;50.20;;;;;;5126267;27;46608;-74
2022/04/21 00:12:59;;;;;;;0.93;0.80;;;19.00;50.00;;;;;;5122392;27;45533;-74
2022/04/21 00:15:28;;;;;;;1.08;0.70;;;19.00;50.20;;;;;;5127761;27;45205;-75
2022/04/21 00:17:54;;;;;;;1.20;0.80;;;19.00;50.10;;;;;;5122734;27;45482;-74
2022/04/21 00:20:21;;;;;;;0.88;0.65;;;19.00;50.10;;;;;;5128274;27;46161;-75
2022/04/21 00:25:29;;;;;;;2.92;0.60;;;19.00;50.10;;;;;;5109887;27;45395;-75
2022/04/21 00:27:56;;;;;;;1.10;0.80;;;19.00;50.20;;;;;;5126578;27;45316;-75
2022/04/21 00:30:23;;;;;;;0.47;0.45;;;19.00;50.10;;;;;;5117088;27;45977;-75
2022/04/21 00:32:52;;;;;;;0.57;0.57;;;19.00;50.20;;;;;;5125929;27;45347;-75
2022/04/21 00:35:19;;;;;;;0.65;0.60;;;19.00;50.00;;;;;;5120795;27;45332;-75
2022/04/21 00:37:47;;;;;;;0.85;0.60;;;19.00;50.00;;;;;;5131038;27;45314;-74
2022/04/21 00:40:15;;;;;;;0.98;0.70;;;19.00;49.90;;;;;;5124387;27;45246;-75
2022/04/21 00:42:42;;;;;;;0.95;0.80;;;19.00;49.80;;;;;;5122500;27;45544;-75
2022/04/21 00:45:10;;;;;;;0.75;0.70;;;19.00;49.80;;;;;;5127822;27;45155;-74
2022/04/21 00:47:40;;;;;;;0.90;0.80;;;19.00;49.90;;;;;;5123435;27;45234;-74
2022/04/21 00:50:11;;;;;;;1.45;0.80;;;19.00;49.90;;;;;;5122487;27;47315;-75
2022/04/21 00:52:39;;;;;;;1.23;0.70;;;19.00;50.00;;;;;;5122190;27;45232;-75
2022/04/21 00:55:07;;;;;;;0.90;0.60;;;19.00;50.10;;;;;;5125003;27;45378;-74
2022/04/21 00:57:35;;;;;;;1.10;0.70;;;19.00;50.10;;;;;;5125772;27;45336;-75
2022/04/21 01:00:02;;;;;;;0.75;0.70;;;19.00;50.00;;;;;;5120377;27;46321;-74
2022/04/21 01:02:49;;;;;;;1.40;0.65;;;19.00;50.10;;;;;;5121906;27;45190;-74
2022/04/21 01:05:18;;;;;;;1.20;0.70;;;19.00;50.10;;;;;;5126726;27;45225;-74
2022/04/21 01:07:45;;;;;;;1.10;0.70;;;19.00;50.10;;;;;;5123413;27;45308;-75
2022/04/21 01:10:13;;;;;;;1.00;0.70;;;19.00;50.10;;;;;;5126040;27;48144;-75
2022/04/21 01:12:43;;;;;;;1.85;0.80;;;19.00;50.00;;;;;;5124147;27;45147;-74
2022/04/21 01:15:10;;;;;;;0.75;0.60;;;19.00;50.00;;;;;;5127592;27;45379;-74
2022/04/21 01:17:38;;;;;;;1.77;0.80;;;19.00;50.10;;;;;;5123610;27;45334;-74
2022/04/21 01:20:07;;;;;;;0.75;0.68;;;19.00;50.10;;;;;;5125132;27;46376;-74
2022/04/21 01:22:35;;;;;;;2.20;0.65;;;19.00;49.90;;;;;;5120256;27;45197;-74
2022/04/21 01:25:02;;;;;;;0.60;0.60;;;18.90;49.80;;;;;;5125376;27;45434;-74
2022/04/21 01:27:33;;;;;;;0.57;0.40;;;19.00;49.90;;;;;;5128260;27;45492;-74
2022/04/21 01:30:02;;;;;;;0.68;0.63;;;19.00;49.80;;;;;;5123125;27;46428;-74
2022/04/21 01:32:29;;;;;;;0.52;0.50;;;19.00;49.90;;;;;;5117109;27;45199;-75
2022/04/21 01:34:55;;;;;;;0.95;0.60;;;19.00;49.80;;;;;;5126284;27;45233;-75
2022/04/21 01:42:54;;;;;;;0.80;0.70;;;19.00;49.80;;;;;;5126982;27;45244;-75
2022/04/21 01:45:21;;;;;;;1.23;0.75;;;18.90;49.70;;;;;;5125211;27;45477;-74
2022/04/21 01:47:48;;;;;;;1.05;0.80;;;19.00;49.80;;;;;;5121741;27;45289;-74
2022/04/21 01:50:15;;;;;;;1.63;0.90;;;19.00;49.80;;;;;;5132618;27;46457;-75
2022/04/21 01:52:42;;;;;;;1.15;0.70;;;19.00;49.90;;;;;;5120684;27;45268;-75
2022/04/21 01:55:11;;;;;;;0.90;0.60;;;18.90;49.90;;;;;;5125957;27;45190;-75
2022/04/21 01:57:38;;;;;;;0.85;0.85;;;18.90;49.90;;;;;;5128702;27;45353;-74
2022/04/21 02:00:06;;;;;;;0.85;0.70;;;18.90;50.00;;;;;;5127112;27;47860;-75
2022/04/21 02:02:33;;;;;;;0.98;0.80;;;18.80;49.90;;;;;;5122677;27;45286;-74
2022/04/21 02:05:00;;;;;;;1.17;0.80;;;18.90;49.70;;;;;;5127521;27;45349;-74
2022/04/21 02:07:27;;;;;;;0.90;0.70;;;18.90;49.10;;;;;;5126666;27;45200;-74
2022/04/21 02:09:54;;;;;;;0.57;0.57;;;18.90;48.20;;;;;;5124527;27;48361;-74
2022/04/21 02:12:23;;;;;;;1.52;0.80;;;18.90;48.20;;;;;;5128414;27;45325;-74
2022/04/21 02:14:50;;;;;;;1.17;0.75;;;18.90;48.00;;;;;;5126686;27;45269;-74
2022/04/21 02:17:17;;;;;;;1.48;0.80;;;18.90;48.10;;;;;;5118709;27;45415;-74
2022/04/21 02:19:43;;;;;;;0.82;0.80;;;18.90;47.70;;;;;;5126576;27;46304;-74
2022/04/21 02:22:10;;;;;;;1.27;0.93;;;18.90;47.50;;;;;;5121465;27;45259;-74
2022/04/21 02:24:38;;;;;;;1.23;0.80;;;18.90;47.30;;;;;;5126782;27;45394;-74
2022/04/21 02:27:05;;;;;;;3.33;0.95;;;18.90;47.90;;;;;;5120261;27;45519;-74
2022/04/21 02:29:33;;;;;;;1.10;0.80;;;18.90;48.50;;;;;;5124269;27;47422;-74
2022/04/21 02:32:01;;;;;;;1.15;0.75;;;18.90;49.20;;;;;;5120571;27;45174;-74
2022/04/21 02:34:29;;;;;;;0.80;0.80;;;18.90;49.50;;;;;;5124279;27;45265;-74
2022/04/21 02:36:56;;;;;;;0.90;0.68;;;18.90;49.60;;;;;;5119779;27;45254;-74
2022/04/21 02:39:24;;;;;;;0.70;0.70;;;18.90;49.80;;;;;;5122448;27;47399;-74
2022/04/21 02:41:50;;;;;;;1.35;0.70;;;18.90;50.00;;;;;;5126404;27;45299;-74
2022/04/21 02:44:17;;;;;;;1.23;0.80;;;18.90;50.10;;;;;;5129586;27;45165;-74
2022/04/21 02:46:45;;;;;;;1.73;0.73;;;18.90;50.20;;;;;;5123030;27;45499;-74
2022/04/21 02:49:13;;;;;;;2.03;0.77;;;18.90;50.30;;;;;;5126560;27;47913;-74
2022/04/21 02:51:39;;;;;;;3.13;0.77;;;18.90;50.40;;;;;;5130537;27;45528;-74
2022/04/21 02:59:35;;;;;;;1.13;0.82;;;19.00;50.60;;;;;;5128006;27;45334;-74
2022/04/21 03:02:03;;;;;;;0.90;0.70;;;19.00;50.70;;;;;;5127646;27;45255;-74
2022/04/21 03:04:30;;;;;;;2.45;0.77;;;19.00;50.70;;;;;;5129989;27;45506;-74
2022/04/21 03:06:57;;;;;;;0.63;0.60;;;19.00;50.60;;;;;;5125512;27;45283;-74
2022/04/21 03:09:24;;;;;;;2.45;0.90;;;19.00;50.70;;;;;;5129361;27;45113;-73
2022/04/21 03:11:50;;;;;;;1.02;0.82;;;19.00;50.70;;;;;;5128212;27;45213;-74
2022/04/21 03:14:19;;;;;;;1.23;0.70;;;19.00;50.70;;;;;;5130140;27;45229;-74
2022/04/21 03:16:46;;;;;;;1.13;0.80;;;18.90;50.70;;;;;;5126220;27;45787;-74
2022/04/21 03:19:14;;;;;;;1.00;0.80;;;18.90;50.70;;;;;;5126997;27;46171;-74
2022/04/21 03:24:25;;;;;;;0.70;0.60;;;18.90;50.70;;;;;;5120950;27;45197;-74
2022/04/21 03:26:53;;;;;;;0.88;0.68;;;18.90;50.70;;;;;;5130691;27;45439;-73
2022/04/21 03:29:20;;;;;;;0.95;0.80;;;18.90;50.80;;;;;;5119718;27;47425;-74
2022/04/21 03:31:48;;;;;;;1.48;0.80;;;19.00;51.00;;;;;;5127627;27;45406;-74
2022/04/21 03:34:17;;;;;;;2.30;1.10;;;18.90;50.90;;;;;;5129615;27;45207;-74
2022/04/21 03:36:47;;;;;;;1.30;0.90;;;19.00;51.00;;;;;;5127970;27;45237;-74
2022/04/21 03:39:14;;;;;;;1.05;0.82;;;19.00;51.00;;;;;;5124640;27;45490;-74
2022/04/21 03:41:41;;;;;;;1.08;0.75;;;19.00;51.20;;;;;;5122735;27;46521;-74
2022/04/21 03:44:09;;;;;;;1.52;0.90;;;19.00;51.10;;;;;;5124226;27;45426;-74
2022/04/21 03:46:36;;;;;;;1.05;0.77;;;19.00;51.10;;;;;;5125623;27;45262;-74
2022/04/21 03:49:03;;;;;;;1.20;0.60;;;19.00;51.10;;;;;;5118435;27;46159;-74
2022/04/21 03:51:31;;;;;;;1.52;0.80;;;19.00;51.10;;;;;;5129535;27;45301;-74
2022/04/21 03:53:59;;;;;;;1.13;0.70;;;19.00;51.20;;;;;;5127776;27;45349;-74
2022/04/21 03:56:26;;;;;;;1.00;0.80;;;19.00;51.20;;;;;;5127203;27;45392;-74
2022/04/21 03:58:53;;;;;;;1.15;0.82;;;18.90;51.20;;;;;;5129070;27;47227;-74
2022/04/21 04:01:20;;;;;;;1.00;0.70;;;19.00;51.30;;;;;;5121069;27;45295;-74
2022/04/21 04:03:48;;;;;;;1.33;0.80;;;19.00;51.20;;;;;;5127552;27;45310;-74
2022/04/21 04:11:44;;;;;;;1.77;0.88;;;18.90;51.10;;;;;;5117386;27;45337;-74
2022/04/21 04:14:11;;;;;;;1.50;0.90;;;18.90;51.10;;;;;;5130162;27;45162;-74
2022/04/21 04:16:38;;;;;;;0.80;0.70;;;18.90;51.10;;;;;;5128449;27;45472;-74
2022/04/21 04:19:08;;;;;;;1.52;1.05;;;18.90;51.10;;;;;;5123074;27;47071;-74
2022/04/21 04:21:35;;;;;;;2.15;1.02;;;19.00;52.20;;;;;;5129306;27;45405;-73
2022/04/21 04:24:03;;;;;;;3.20;0.82;;;18.90;51.00;;;;;;5128197;27;45248;-73
2022/04/21 04:26:32;;;;;;;1.25;0.90;;;19.00;51.20;;;;;;5126877;27;45655;-73
2022/04/21 04:28:59;;;;;;;1.30;0.60;;;18.90;51.10;;;;;;5127638;27;46627;-74
2022/04/21 04:31:25;;;;;;;2.97;1.08;;;19.00;51.10;;;;;;5128266;27;45294;-74
2022/04/21 04:33:52;;;;;;;2.83;1.10;;;19.00;51.10;;;;;;5129521;27;45154;-74
2022/04/21 04:36:19;;;;;;;1.65;1.02;;;19.00;51.10;;;;;;5128347;27;45493;-73
2022/04/21 04:38:48;;;;;;;2.30;0.95;;;19.00;51.10;;;;;;5126110;27;46273;-74
2022/04/21 04:44:01;;;;;;;1.17;0.80;;;18.90;51.10;;;;;;5125771;27;45233;-72
2022/04/21 04:46:37;;;;;;;1.27;0.80;;;19.00;51.10;;;;;;5129091;27;45294;-73
2022/04/21 04:49:06;;;;;;;1.67;0.82;;;18.90;51.00;;;;;;5123616;27;47592;-73
2022/04/21 04:51:33;;;;;;;1.30;0.95;;;18.90;51.00;;;;;;5126261;27;45254;-72
2022/04/21 04:54:01;;;;;;;1.85;1.00;;;18.90;50.90;;;;;;5125938;27;45298;-74
2022/04/21 04:56:29;;;;;;;2.42;1.00;;;18.90;50.80;;;;;;5129177;27;45228;-74
2022/04/21 04:58:57;;;;;;;0.90;0.77;;;18.90;51.00;;;;;;5126097;27;45225;-73
2022/04/21 05:01:28;;;;;;;2.10;1.13;;;18.90;51.60;;;;;;5128970;27;45203;-74
2022/04/21 05:04:01;;;;;;;1.40;0.98;;;18.80;51.10;;;;;;5124036;27;45202;-74
2022/04/21 05:06:28;;;;;;;1.73;1.05;;;18.90;51.30;;;;;;5118474;27;45258;-74
2022/04/21 05:08:57;;;;;;;2.35;1.27;;;18.90;51.20;;;;;;5126054;27;46428;-73
2022/04/21 05:11:24;;;;;;;3.13;1.27;;;18.90;51.40;;;;;;5127624;27;45368;-74
2022/04/21 05:13:52;;;;;;;1.00;0.90;;;18.90;51.70;;;;;;5129390;27;45304;-74
2022/04/21 05:16:19;;;;;;;2.20;1.27;;;18.90;51.90;;;;;;5125307;27;45353;-73
2022/04/21 05:18:46;;;;;;;1.80;1.25;;;18.90;52.20;;;;;;5119725;27;46299;-74
2022/04/21 05:21:13;;;;;;;2.38;1.27;;;18.90;52.30;;;;;;5117798;27;45647;-74
2022/04/21 05:23:41;;;;;;;1.63;1.15;;;18.90;51.60;;;;;;5125244;27;45203;-74
2022/04/21 05:26:08;;;;;;;3.53;1.38;;;18.90;50.70;;;;;;5127872;27;46621;-74
2022/04/21 05:28:36;;;;;;;3.28;1.40;;;18.90;50.30;;;;;;5125319;27;46297;-74
2022/04/21 05:31:03;;;;;;;1.67;1.30;;;18.90;49.70;;;;;;5126213;27;45205;-74
2022/04/21 05:33:31;;;;;;;3.15;1.38;;;18.90;48.70;;;;;;5126953;27;45219;-74
2022/04/21 05:36:00;;;;;;;2.22;1.38;;;18.90;49.10;;;;;;5117026;27;45337;-73
2022/04/21 05:38:28;;;;;;;1.93;1.30;;;18.80;49.20;;;;;;5115299;27;47463;-73
2022/04/21 05:40:56;;;;;;;2.35;1.35;;;18.80;49.40;;;;;;5120337;27;45300;-73
2022/04/21 05:43:28;;;;;;;2.63;1.40;;;18.80;50.20;;;;;;5122428;27;45292;-73
2022/04/21 05:45:55;;;;;;;1.43;1.10;;;18.80;50.80;;;;;;5124729;27;45526;-73
2022/04/21 05:48:24;;;;;;;1.50;1.15;;;18.90;51.10;;;;;;5125519;27;45312;-74
2022/04/21 05:50:53;;;;;;;2.63;1.10;;;18.90;51.10;;;;;;5118082;27;45124;-73
2022/04/21 05:53:22;;;;;;;2.03;1.10;;;18.90;51.20;;;;;;5117517;27;45379;-73
2022/04/21 05:55:49;;;;;;;2.20;1.20;;;18.90;51.30;;;;;;5127976;27;45495;-74
2022/04/21 05:58:16;;;;;;;1.98;1.08;;;18.90;51.40;;;;;;5123340;27;47785;-73
2022/04/21 06:00:43;;;;;;;1.20;1.00;;;18.90;51.40;;;;;;5116322;27;46034;-73
2022/04/21 06:03:11;;;;;;;2.05;1.20;;;18.90;51.40;;;;;;5121907;27;45706;-73
2022/04/21 06:05:39;;;;;;;1.65;1.02;;;18.90;51.40;;;;;;5114518;27;45335;-73
2022/04/21 06:08:07;;;;;;;1.27;0.93;;;18.90;51.40;;;;;;5118108;27;46839;-73
2022/04/21 06:10:34;;;;;;;1.42;1.00;;;18.90;51.50;;;;;;5122099;27;45884;-73
2022/04/21 06:13:02;;;;;;;1.48;1.10;;;18.90;51.50;;;;;;5123573;27;45274;-73
2022/04/21 06:15:31;;;;;;;1.52;1.00;;;18.90;51.60;;;;;;5124010;27;45089;-73
2022/04/21 06:17:58;;;;;;;3.00;1.00;;;18.90;51.60;;;;;;5127701;27;47385;-74
2022/04/21 06:20:25;;;;;;;1.52;1.02;;;18.90;51.70;;;;;;5130992;27;45224;-73
2022/04/21 06:22:55;;;;;;;1.60;1.20;;;19.00;51.80;;;;;;5122875;27;45542;-73
2022/04/21 06:25:22;;;;;;;2.25;1.20;;;18.90;51.70;;;;;;5133890;27;45474;-74
2022/04/21 06:27:49;;;;;;;1.45;0.90;;;18.90;51.70;;;;;;5132018;27;45204;-74
2022/04/21 06:30:16;;;;;;;1.67;1.27;;;18.90;51.70;;;;;;5129329;27;45228;-73
2022/04/21 06:32:43;;;;;;;2.03;1.17;;;19.00;51.80;;;;;;5125942;27;45240;-74
2022/04/21 06:35:10;;;;;;;1.20;1.00;;;18.90;51.80;;;;;;5131543;27;45340;-73
2022/04/21 06:37:37;;;;;;;2.13;1.08;;;19.00;52.00;;;;;;5123492;27;46154;-73
2022/04/21 06:40:06;;;;;;;2.80;1.30;;;18.90;51.90;;;;;;5127545;27;45281;-73
2022/04/21 06:42:35;;;;;;;1.67;1.08;;;19.00;52.10;;;;;;5129897;27;45259;-73
2022/04/21 06:48:04;;;;;;;1.80;1.13;;;19.00;52.00;;;;;;5121463;27;45343;-73
2022/04/21 06:50:33;;;;;;;2.88;1.30;;;19.00;52.10;;;;;;5119233;27;45326;-73
2022/04/21 06:53:00;;;;;;;2.00;0.98;;;19.00;52.10;;;;;;5119013;27;45369;-73
2022/04/21 06:55:29;;;;;;;1.63;1.15;;;19.00;52.10;;;;;;5128522;27;45315;-73
2022/04/21 06:57:56;;;;;;;1.83;1.20;;;19.00;52.20;;;;;;5130028;27;45157;-73
2022/04/21 07:00:25;;;;;;;1.45;1.00;;;18.90;52.20;;;;;;5124748;27;45258;-74
2022/04/21 07:02:54;;;;;;;1.77;1.13;;;18.90;52.20;;;;;;5129597;27;45269;-73
2022/04/21 07:05:22;;;;;;;2.38;1.20;;;18.90;52.30;;;;;;5128951;27;45346;-73
2022/04/21 07:07:51;;;;;;;1.60;1.10;;;18.90;52.40;;;;;;5124158;27;47310;-73
2022/04/21 07:10:19;;;;;;;2.42;1.40;;;18.90;52.40;;;;;;5128487;27;45773;-73
2022/04/21 07:12:47;;;;;;;3.95;1.50;;;18.90;52.30;;;;;;5128205;27;45279;-73
2022/04/21 07:15:15;;;;;;;17.30;2.78;;;18.90;52.40;;;;;;5120249;27;45646;-74
2022/04/21 07:17:42;;;;;;;3.90;1.60;;;19.00;53.20;;;;;;5119429;27;45195;-74
2022/04/21 07:20:12;;;;;;;3.05;1.60;;;18.90;52.70;;;;;;5129515;27;45314;-73
2022/04/21 07:22:39;;;;;;;5.32;1.30;;;19.00;52.70;;;;;;5128890;27;45223;-73
2022/04/21 07:25:08;;;;;;;3.05;1.27;;;19.00;52.60;;;;;;5130005;27;46939;-73
2022/04/21 07:27:36;;;;;;;7.63;1.42;;;19.00;52.70;;;;;;5123160;27;45262;-73
2022/04/21 07:30:05;;;;;;;3.00;1.13;;;18.90;52.70;;;;;;5124818;27;45335;-74
2022/04/21 07:32:32;;;;;;;4.18;1.33;;;19.00;52.80;;;;;;5115150;27;45263;-74
2022/04/21 07:34:59;;;;;;;2.95;1.55;;;19.00;52.70;;;;;;5115867;27;45219;-74
2022/04/21 07:37:26;;;;;;;2.55;1.25;;;19.00;52.90;;;;;;5129956;27;45283;-74
2022/04/21 07:39:53;;;;;;;2.88;1.33;;;18.90;53.00;;;;;;5127645;27;45136;-74
2022/04/21 07:42:21;;;;;;;2.60;1.42;;;19.00;53.20;;;;;;5121850;27;45370;-74
2022/04/21 07:44:48;;;;;;;4.85;1.65;;;19.00;53.20;;;;;;5124399;27;45305;-75
2022/04/21 07:47:16;;;;;;;3.03;1.30;;;19.00;53.20;;;;;;5123164;27;45503;-75
2022/04/21 07:49:46;;;;;;;3.15;1.48;;;19.00;53.20;;;;;;5122109;27;45155;-74
2022/04/21 07:55:06;;;;;;;2.53;1.30;;;19.00;53.10;;;;;;5121417;27;45349;-75
2022/04/21 07:57:33;;;;;;;3.17;1.17;;;18.90;53.10;;;;;;5118204;27;47139;-74
2022/04/21 08:00:00;;;;;;;4.32;1.40;;;19.00;52.90;;;;;;5121384;27;45758;-75
2022/04/21 08:02:28;;;;;;;5.95;1.30;;;19.00;53.20;;;;;;5122879;27;45278;-74
2022/04/21 08:04:54;;;;;;;3.15;1.13;;;19.00;52.80;;;;;;5128646;27;45428;-75
2022/04/21 08:07:21;;;;;;;3.63;1.10;;;19.00;52.50;;;;;;5128779;27;45336;-74
2022/04/21 08:09:48;;;;;;;2.72;1.17;;;19.00;52.40;;;;;;5127522;27;45369;-74
2022/04/21 08:12:15;;;;;;;7.00;1.30;;;19.00;52.30;;;;;;5127123;27;45125;-75
2022/04/21 08:14:42;;;;;;;2.22;0.98;;;19.10;52.20;;;;;;5127595;27;45386;-74
2022/04/21 08:17:08;;;;;;;2.25;1.00;;;19.10;52.20;;;;;;5127354;27;45231;-75
2022/04/21 08:19:37;;;;;;;1.63;0.88;;;19.10;52.00;;;;;;5126827;27;46012;-75
2022/04/21 08:22:04;;;;;;;2.90;1.13;;;19.10;51.80;;;;;;5128891;27;45712;-74
2022/04/21 08:32:45;;;;;;;2.17;1.00;;;19.10;51.30;;;;;;5122107;27;45425;-74
2022/04/21 08:35:14;;;;;;;1.77;1.10;;;19.10;51.50;;;;;;5127618;27;45384;-75
2022/04/21 08:37:42;;;;;;;1.42;0.98;;;19.10;51.50;;;;;;5126449;27;45538;-75
2022/04/21 08:40:10;;;;;;;2.78;1.00;;;19.10;51.20;;;;;;5125492;27;45254;-75
2022/04/21 08:42:39;;;;;;;1.58;1.05;;;19.10;50.90;;;;;;5119612;27;45231;-74
2022/04/21 08:45:07;;;;;;;1.38;0.93;;;19.10;51.30;;;;;;5128824;27;45353;-74
2022/04/21 08:47:35;;;;;;;1.45;0.98;;;19.20;50.80;;;;;;5130152;27;45530;-75
2022/04/21 08:50:06;;;;;;;1.90;1.23;;;19.10;50.70;;;;;;5124857;27;45269;-75
2022/04/21 08:52:35;;;;;;;2.30;0.95;;;19.10;50.40;;;;;;5128620;27;45164;-74
2022/04/21 08:55:03;;;;;;;1.85;0.95;;;19.10;50.60;;;;;;5128392;27;45101;-75
2022/04/21 08:57:30;;;;;;;1.38;1.05;;;19.10;51.10;;;;;;5122298;27;45215;-74
2022/04/21 08:59:57;;;;;;;1.83;0.77;;;19.10;50.70;;;;;;5117527;27;45330;-74
2022/04/21 09:02:34;;;;;;;1.48;0.73;;;19.10;50.30;;;;;;5120553;27;45305;-74
2022/04/21 09:05:01;;;;;;;1.95;0.70;;;19.10;50.00;;;;;;5123634;27;45340;-75
2022/04/21 09:07:28;;;;;;;3.38;0.80;;;19.10;49.80;;;;;;5116531;27;45400;-74
2022/04/21 09:10:05;;;;;;;1.58;0.80;;;19.10;49.30;;;;;;5128264;27;45189;-75
2022/04/21 09:12:33;;;;;;;0.90;0.60;;;19.10;49.40;;;;;;5122564;27;45504;-75
2022/04/21 09:15:07;;;;;;;1.27;0.77;;;18.90;49.00;;;;;;5125928;27;45443;-74
2022/04/21 09:17:40;;;;;;;0.98;0.70;;;19.10;49.10;;;;;;5126991;27;47378;-74
2022/04/21 09:20:08;;;;;;;0.80;0.70;;;19.20;49.30;;;;;;5121992;27;45601;-74
2022/04/21 09:22:35;;;;;;;1.92;0.80;;;19.20;49.30;;;;;;5124562;27;45487;-75
2022/04/21 09:25:03;;;;;;;2.50;0.80;;;19.20;48.70;;;;;;5125330;27;45410;-74
2022/04/21 09:27:41;;;;;;;0.88;0.75;;;19.20;48.30;;;;;;5125591;27;48691;-75
2022/04/21 09:30:10;;;;;;;2.38;0.73;;;19.20;47.50;;;;;;5120597;27;45322;-75
2022/04/21 09:32:38;;;;;;;1.75;0.90;;;19.20;48.10;;;;;;5125865;27;45432;-74
2022/04/21 09:35:07;;;;;;;0.88;0.50;;;19.30;48.00;;;;;;5126846;27;45515;-74
2022/04/21 09:37:44;;;;;;;1.88;0.80;;;19.30;47.40;;;;;;5114163;27;48234;-75
2022/04/21 09:40:13;;;;;;;1.92;0.82;;;19.40;47.60;;;;;;5123547;27;45207;-74
2022/04/21 09:42:40;;;;;;;1.55;0.98;;;19.40;46.80;;;;;;5125414;27;45275;-75
2022/04/21 09:47:53;;;;;;;1.77;0.88;;;19.40;47.00;;;;;;5121381;27;45340;-74
2022/04/21 09:50:21;;;;;;;1.70;0.85;;;19.30;47.40;;;;;;5126903;27;45168;-75
2022/04/21 09:52:49;;;;;;;0.82;0.55;;;19.30;47.60;;;;;;5127623;27;45152;-74
2022/04/21 09:55:26;;;;;;;0.50;0.50;;;19.30;47.40;;;;;;5121557;27;45439;-74
2022/04/21 09:58:03;;;;;;;1.08;0.60;;;19.30;46.90;;;;;;5121451;27;45444;-75
2022/04/21 10:00:30;;;;;;;1.35;0.50;;;19.20;47.40;;;;;;5123582;27;45267;-75
2022/04/21 10:02:58;;;;;;;1.17;0.68;;;19.20;47.50;;;;;;5125799;27;45381;-75
2022/04/21 10:05:25;;;;;;;1.38;0.90;;;19.20;47.40;;;;;;5115979;27;45400;-74
2022/04/21 10:07:53;;;;;;;1.92;0.80;;;19.20;47.50;;;;;;5112867;27;47375;-75
2022/04/21 10:10:20;;;;;;;2.10;1.25;;;19.20;47.40;;;;;;5119706;27;45511;-75
2022/04/21 10:12:50;;;;;;;2.15;0.80;;;19.30;47.20;;;;;;5126656;27;45383;-75
2022/04/21 10:15:17;;;;;;;3.25;0.82;;;19.30;46.60;;;;;;5124376;27;45239;-75
2022/04/21 10:17:44;;;;;;;1.02;0.70;;;19.30;47.80;;;;;;5122703;27;46165;-75
2022/04/21 10:20:12;;;;;;;2.65;0.98;;;19.30;46.60;;;;;;5124354;27;45235;-74
2022/04/21 10:22:39;;;;;;;1.75;0.70;;;19.30;46.30;;;;;;5126066;27;46324;-74
2022/04/21 10:25:08;;;;;;;1.27;0.63;;;19.30;46.50;;;;;;5127662;27;45379;-75
2022/04/21 10:27:36;;;;;;;1.15;0.52;;;19.30;47.00;;;;;;5116281;27;47180;-74
2022/04/21 10:30:12;;;;;;;1.42;0.60;;;19.30;46.70;;;;;;5127079;27;45165;-75
2022/04/21 10:32:49;;;;;;;0.88;0.65;;;19.30;46.30;;;;;;5120694;27;45120;-75
2022/04/21 10:35:47;;;;;;;2.40;0.77;;;19.30;45.90;;;;;;5116098;27;45259;-75
2022/04/21 10:38:22;;;;;;;1.70;0.80;;;19.30;46.60;;;;;;5125403;27;46669;-74
2022/04/21 10:40:57;;;;;;;1.42;0.70;;;19.30;47.20;;;;;;5127362;27;45296;-75
2022/04/21 10:43:24;;;;;;;1.55;0.75;;;19.20;47.10;;;;;;5117271;27;45273;-75
2022/04/21 10:46:18;;;;;;;1.13;0.60;;;19.20;47.40;;;;;;5121809;27;45332;-75
2022/04/21 10:48:45;;;;;;;0.90;0.80;;;19.20;46.60;;;;;;5119208;27;45432;-74
2022/04/21 10:51:12;;;;;;;1.30;0.85;;;19.20;46.90;;;;;;5120659;27;45391;-75
2022/04/21 10:59:30;;;;;;;1.27;0.80;;;19.40;51.80;;;;;;5111446;27;45304;-74
2022/04/21 11:02:11;;;;;;;5.18;0.90;;;19.50;51.10;;;;;;5124788;27;45353;-74
2022/04/21 11:04:38;;;;;;;3.80;1.00;;;19.70;51.00;;;;;;5130429;27;45608;-74
2022/04/21 11:07:08;;;;;;;2.08;0.70;;;19.90;50.90;;;;;;5121850;27;45524;-74
2022/04/21 11:09:41;;;;;;;3.47;0.90;;;20.20;50.40;;;;;;5129235;27;45265;-74
2022/04/21 11:12:09;;;;;;;1.77;0.80;;;20.40;50.60;;;;;;5128562;27;45324;-74
2022/04/21 11:14:38;;;;;;;1.98;0.70;;;20.60;50.40;;;;;;5124004;27;45220;-75
2022/04/21 11:17:07;;;;;;;1.88;0.90;;;20.80;50.50;;;;;;5120187;27;45311;-74
2022/04/21 11:19:44;;;;;;;3.15;0.95;;;21.00;50.70;;;;;;5128970;27;45259;-74
2022/04/21 11:22:14;;;;;;;2.80;0.80;;;21.20;51.10;;;;;;5128255;27;45856;-74
2022/04/21 11:25:04;;;;;;;1.88;0.57;;;21.30;51.20;;;;;;5121968;27;45214;-74
2022/04/21 11:27:40;;;;;;;1.30;0.70;;;21.40;52.00;;;;;;5127410;27;45923;-74
2022/04/21 11:30:09;;;;;;;2.25;1.13;;;21.60;52.30;;;;;;5126022;27;46144;-75
2022/04/21 11:32:38;;;;;;;1.38;0.70;;;21.70;50.90;;;;;;5122336;27;45293;-74
2022/04/21 11:35:09;;;;;;;2.53;0.82;;;21.60;50.60;;;;;;5128325;27;45354;-74
2022/04/21 11:37:47;;;;;;;1.10;0.77;;;21.60;50.70;;;;;;5123070;27;45249;-74
2022/04/21 11:40:36;;;;;;;2.05;0.95;;;21.50;50.80;;;;;;5124975;27;46407;-74
2022/04/21 11:43:06;;;;;;;2.17;1.00;;;21.40;50.60;;;;;;5122832;27;45369;-74
2022/04/21 11:45:36;;;;;;;5.95;1.10;;;21.40;51.20;;;;;;5128525;27;45177;-75
2022/04/21 11:48:11;;;;;;;3.58;0.90;;;21.60;51.60;;;;;;5125713;27;45286;-75
2022/04/21 11:50:42;;;;;;;3.15;1.15;;;21.70;51.50;;;;;;5121030;27;45347;-74
2022/04/21 11:53:14;;;;;;;3.03;1.20;;;21.70;51.90;;;;;;5123560;27;45283;-75
2022/04/21 11:55:41;;;;;;;2.83;1.13;;;21.80;51.70;;;;;;5122881;27;45416;-75
2022/04/21 11:58:08;;;;;;;3.70;1.20;;;21.70;51.50;;;;;;5118174;27;45592;-75
2022/04/21 12:08:51;;;;;;;5.18;1.23;;;20.90;49.90;;;;;;5113841;27;45343;-74
2022/04/21 12:11:20;;;;;;;2.03;1.17;;;20.70;49.00;;;;;;5125897;27;47057;-74
2022/04/21 12:13:48;;;;;;;2.63;1.10;;;20.50;49.70;;;;;;5128616;27;45500;-74
2022/04/21 12:16:36;;;;;;;3.35;1.73;;;20.40;49.50;;;;;;5128734;27;45485;-74
2022/04/21 12:19:19;;;;;;;2.17;1.25;;;20.30;50.00;;;;;;5127144;27;45500;-74
2022/04/21 12:21:55;;;;;;;2.35;1.13;;;20.20;49.90;;;;;;5129275;27;47108;-74
2022/04/21 12:24:28;;;;;;;3.00;1.10;;;20.20;50.30;;;;;;5122453;27;45230;-74
2022/04/21 12:26:55;;;;;;;4.95;1.25;;;20.20;50.30;;;;;;5128957;27;45316;-74
2022/04/21 12:29:24;;;;;;;2.53;1.00;;;20.10;50.70;;;;;;5124046;27;45499;-74
2022/04/21 12:31:52;;;;;;;1.67;0.90;;;20.10;51.00;;;;;;5127431;27;46374;-74
2022/04/21 12:34:26;;;;;;;3.42;1.48;;;20.10;51.20;;;;;;5130004;27;45293;-74
2022/04/21 12:36:54;;;;;;;2.28;0.88;;;20.00;50.90;;;;;;5127258;27;45226;-74
2022/04/21 12:39:21;;;;;;;2.00;0.80;;;20.00;51.00;;;;;;5126145;27;45572;-74
2022/04/21 12:41:48;;;;;;;2.40;1.00;;;20.00;50.60;;;;;;5123522;27;47443;-75
2022/04/21 12:44:17;;;;;;;2.38;1.30;;;20.00;50.80;;;;;;5124101;27;45680;-75
2022/04/21 12:46:56;;;;;;;2.40;1.00;;;20.00;50.80;;;;;;5122974;27;45349;-74
2022/04/21 12:49:25;;;;;;;1.85;0.90;;;19.90;50.50;;;;;;5120740;27;45172;-74
2022/04/21 12:51:55;;;;;;;2.17;1.10;;;19.90;51.30;;;;;;5126197;27;45230;-74
2022/04/21 12:54:26;;;;;;;2.05;1.20;;;19.90;50.70;;;;;;5118069;27;45427;-74
2022/04/21 12:56:54;;;;;;;2.30;1.00;;;19.80;50.40;;;;;;5126076;27;45631;-75
2022/04/21 12:59:21;;;;;;;1.90;0.90;;;19.80;50.30;;;;;;5117591;27;45273;-74
2022/04/21 13:01:48;;;;;;;1.80;0.90;;;19.80;50.50;;;;;;5121693;27;45468;-75
2022/04/21 13:04:14;;;;;;;1.50;0.80;;;19.80;50.60;;;;;;5126001;27;45291;-74
2022/04/21 13:06:43;;;;;;;1.58;1.17;;;19.80;50.70;;;;;;5126117;27;45365;-74
2022/04/21 13:09:10;;;;;;;2.95;1.00;;;19.70;50.30;;;;;;5113230;27;45318;-74
2022/04/21 13:11:37;;;;;;;1.48;1.02;;;19.70;50.60;;;;;;5121113;27;48034;-74
2022/04/21 13:14:04;;;;;;;2.15;1.15;;;19.70;51.30;;;;;;5118497;27;45983;-75
2022/04/21 13:16:31;;;;;;;2.35;1.00;;;19.70;50.70;;;;;;5123253;27;46004;-74
2022/04/21 13:18:58;;;;;;;1.88;0.90;;;19.60;50.40;;;;;;5120951;27;45319;-74
2022/04/21 13:24:10;;;;;;;1.25;0.95;;;19.60;50.80;;;;;;5105365;27;45355;-74
2022/04/21 13:26:37;;;;;;;1.80;0.80;;;19.60;51.70;;;;;;5114406;27;45522;-74
2022/04/21 13:29:06;;;;;;;1.42;0.80;;;19.60;51.70;;;;;;5119504;27;45349;-74
2022/04/21 13:34:17;;;;;;;0.82;0.70;;;19.60;51.40;;;;;;5115873;27;45372;-74
2022/04/21 13:36:44;;;;;;;2.25;0.93;;;19.60;51.40;;;;;;5126761;27;45287;-75
2022/04/21 13:39:12;;;;;;;1.20;0.80;;;19.60;51.10;;;;;;5127401;27;45214;-75
2022/04/21 13:41:39;;;;;;;1.27;0.82;;;19.60;50.90;;;;;;5127816;27;45201;-74
2022/04/21 13:44:06;;;;;;;2.25;0.82;;;19.60;51.10;;;;;;5128040;27;45342;-74
2022/04/21 13:46:34;;;;;;;2.30;1.10;;;19.60;51.40;;;;;;5124917;27;45939;-74
2022/04/21 13:49:01;;;;;;;1.73;1.10;;;19.60;51.20;;;;;;5107738;27;45473;-74
2022/04/21 13:51:29;;;;;;;3.10;0.80;;;19.60;51.20;;;;;;5128206;27;46371;-75
2022/04/21 13:53:57;;;;;;;2.00;0.73;;;19.60;51.70;;;;;;5128325;27;45224;-75
2022/04/21 13:56:25;;;;;;;1.45;1.00;;;19.60;51.30;;;;;;5126656;27;45238;-75